Time;durP1;ratioP1;P1;durP2;ratioP2;P2;SDS_P1;SDS_P2;PMS_P1;PMS_P2;Temp;Humidity;BMP_temperature;BMP_pressure;BME280_temperature;BME280_humidity;BME280_pressure;Samples;Min_cycle;Max_cycle;Signal;HPM_P1;HPM_P2
2022/01/31 00:01:23;;;;;;;14.10;2.17;;;;;;;1.77;49.72;95973.22;5096316;28;20151;-63
2022/01/31 00:03:49;;;;;;;10.68;2.13;;;;;;;1.57;50.70;95978.63;5096227;28;20034;-63
2022/01/31 00:06:15;;;;;;;12.13;3.50;;;;;;;1.44;51.04;95983.03;5096045;28;20099;-62
2022/01/31 00:08:42;;;;;;;8.90;2.25;;;;;;;1.43;51.03;95990.78;5095997;28;20024;-63
2022/01/31 00:11:07;;;;;;;21.02;7.50;;;;;;;1.33;51.70;95998.63;5095983;28;20020;-62
2022/01/31 00:13:40;;;;;;;15.40;5.28;;;;;;;1.26;52.17;95995.25;5095905;28;20024;-62
2022/01/31 00:16:08;;;;;;;9.20;2.63;;;;;;;1.20;51.73;95997.88;5095815;28;20028;-62
2022/01/31 00:18:33;;;;;;;16.75;2.38;;;;;;;1.05;52.48;95992.88;5095855;28;20120;-62
2022/01/31 00:20:59;;;;;;;13.75;2.90;;;;;;;0.92;52.66;95992.97;5095510;28;20497;-62
2022/01/31 00:23:25;;;;;;;45.85;19.85;;;;;;;0.87;52.83;95995.59;5095779;28;20505;-62
2022/01/31 00:25:50;;;;;;;41.58;22.58;;;;;;;0.80;52.80;95998.22;5095618;28;20485;-62
2022/01/31 00:28:16;;;;;;;13.07;5.10;;;;;;;0.67;53.21;96000.91;5095657;28;20031;-62
2022/01/31 00:30:41;;;;;;;7.32;2.65;;;;;;;0.50;53.66;95991.59;5095651;28;20474;-62
2022/01/31 00:33:07;;;;;;;8.90;2.70;;;;;;;0.39;53.83;95995.94;5095444;28;20027;-62
2022/01/31 00:35:33;;;;;;;16.52;2.85;;;;;;;0.33;54.36;96004.56;5095517;28;20040;-62
2022/01/31 00:37:59;;;;;;;12.38;2.90;;;;;;;0.28;54.57;96010.59;5076129;28;20064;-62
2022/01/31 00:40:25;;;;;;;8.68;2.38;;;;;;;0.28;54.81;96003.75;5095538;28;20082;-63
2022/01/31 00:42:50;;;;;;;13.95;1.90;;;;;;;0.22;55.34;96004.63;5095398;28;20466;-62
2022/01/31 00:45:23;;;;;;;7.70;1.58;;;;;;;0.15;56.30;96002.94;5095251;28;20020;-62
2022/01/31 00:47:59;;;;;;;10.05;1.75;;;;;;;0.07;56.22;95996.97;5095231;28;20559;-62
2022/01/31 00:50:24;;;;;;;13.05;2.63;;;;;;;-0.17;57.27;95999.69;5095183;28;20039;-62
2022/01/31 00:52:50;;;;;;;9.15;1.98;;;;;;;-0.20;57.39;95999.69;5095335;28;20025;-62
2022/01/31 00:55:16;;;;;;;12.27;2.40;;;;;;;-0.22;57.26;96000.53;5095188;28;20494;-62
2022/01/31 00:57:42;;;;;;;4.22;1.70;;;;;;;-0.30;57.17;96006.56;5095020;28;20028;-62
2022/01/31 01:00:10;;;;;;;8.70;1.20;;;;;;;-0.37;57.24;96002.31;5095069;28;20024;-62
2022/01/31 01:02:35;;;;;;;6.03;1.70;;;;;;;-0.54;57.47;96000.63;5094915;28;20020;-62
2022/01/31 01:05:01;;;;;;;6.95;2.28;;;;;;;-0.58;57.64;96000.66;5095009;28;20374;-62
2022/01/31 01:07:26;;;;;;;2.97;1.55;;;;;;;-0.70;57.56;96006.66;5094923;28;20024;-62
2022/01/31 01:09:52;;;;;;;13.25;1.80;;;;;;;-0.89;58.32;95993.88;5094815;28;20103;-62
2022/01/31 01:12:18;;;;;;;9.45;1.60;;;;;;;-0.94;58.43;95996.44;5094709;28;20498;-62
2022/01/31 01:14:47;;;;;;;7.95;1.52;;;;;;;-1.00;58.59;95993.88;5094631;28;20016;-63
2022/01/31 01:17:12;;;;;;;11.65;1.67;;;;;;;-1.10;59.26;95981.91;5094598;28;20500;-62
2022/01/31 01:19:38;;;;;;;10.95;1.80;;;;;;;-1.19;59.32;95991.34;5094516;28;20024;-62
2022/01/31 01:22:04;;;;;;;9.55;1.50;;;;;;;-1.20;59.39;95987.03;5094236;28;20048;-62
2022/01/31 01:24:29;;;;;;;16.35;1.70;;;;;;;-1.19;59.52;95991.34;5094605;28;20026;-62
2022/01/31 01:26:56;;;;;;;6.32;1.58;;;;;;;-1.24;59.36;95989.63;5094461;28;20547;-62
2022/01/31 01:29:21;;;;;;;11.63;2.28;;;;;;;-1.25;59.91;95993.91;5094512;28;20040;-62
2022/01/31 01:31:48;;;;;;;5.18;1.30;;;;;;;-1.27;60.00;95991.31;5094421;28;20069;-62
2022/01/31 01:34:15;;;;;;;8.95;1.48;;;;;;;-1.31;60.24;95992.19;5094241;28;20378;-62
2022/01/31 01:36:43;;;;;;;3.33;1.40;;;;;;;-1.33;60.37;95993.06;5094310;28;20478;-62
2022/01/31 01:39:09;;;;;;;20.38;1.80;;;;;;;-1.35;60.72;95995.63;5094398;28;20482;-62
2022/01/31 01:41:35;;;;;;;5.88;1.77;;;;;;;-1.31;60.76;95996.47;5094222;28;20436;-62
2022/01/31 01:44:01;;;;;;;9.20;1.55;;;;;;;-1.33;60.41;95995.63;5094298;28;20107;-62
2022/01/31 01:46:26;;;;;;;3.10;1.35;;;;;;;-1.31;61.24;95996.47;5094023;28;20020;-62
2022/01/31 01:48:52;;;;;;;4.57;1.40;;;;;;;-1.37;61.23;95992.19;5093657;28;20020;-62
2022/01/31 01:51:17;;;;;;;33.10;9.75;;;;;;;-1.46;61.71;95998.16;5094096;28;20416;-62
2022/01/31 01:53:43;;;;;;;13.02;4.18;;;;;;;-1.48;62.00;96001.59;5094008;28;20031;-62
2022/01/31 01:56:09;;;;;;;18.85;2.97;;;;;;;-1.45;61.75;96006.72;5094061;28;20028;-62
2022/01/31 01:58:40;;;;;;;8.82;2.83;;;;;;;-1.46;61.81;96007.56;5093872;28;20076;-62
2022/01/31 02:01:07;;;;;;;9.48;1.92;;;;;;;-1.51;62.17;95997.28;5093959;28;20031;-62
2022/01/31 02:03:34;;;;;;;7.30;1.45;;;;;;;-1.50;62.03;95993.91;5092572;28;20427;-62
2022/01/31 02:06:01;;;;;;;5.88;2.00;;;;;;;-1.49;61.51;95993.03;5093754;28;20074;-62
2022/01/31 02:08:28;;;;;;;13.82;1.70;;;;;;;-1.47;61.87;95998.16;5093756;28;20020;-62
2022/01/31 02:10:54;;;;;;;5.20;1.50;;;;;;;-1.66;63.41;96001.56;5093588;28;20122;-62
2022/01/31 02:13:20;;;;;;;12.20;1.98;;;;;;;-1.68;63.31;96005.00;5093679;28;20111;-62
2022/01/31 02:15:51;;;;;;;6.95;2.03;;;;;;;-1.65;62.96;96003.25;5093667;28;20020;-62
2022/01/31 02:18:22;;;;;;;5.85;1.52;;;;;;;-1.74;62.95;96005.84;5093601;28;20084;-62
2022/01/31 02:20:48;;;;;;;9.60;1.75;;;;;;;-1.77;63.54;96010.97;5093535;28;20410;-62
2022/01/31 02:23:17;;;;;;;4.65;1.30;;;;;;;-1.85;63.44;96005.81;5093466;28;20024;-62
2022/01/31 02:25:52;;;;;;;4.97;1.42;;;;;;;-1.84;63.49;96014.38;5093475;28;20559;-63
2022/01/31 02:28:18;;;;;;;23.58;1.77;;;;;;;-1.82;63.00;96017.78;5093297;28;20035;-63
2022/01/31 02:30:43;;;;;;;7.55;1.63;;;;;;;-1.84;62.78;96033.16;5093378;28;20031;-63
2022/01/31 02:33:09;;;;;;;14.38;1.85;;;;;;;-1.86;63.07;96026.31;5093473;28;20029;-63
2022/01/31 02:35:35;;;;;;;8.50;1.58;;;;;;;-1.94;63.09;96024.59;5093096;28;20374;-62
2022/01/31 02:38:01;;;;;;;7.90;1.92;;;;;;;-1.96;63.06;96026.28;5093291;28;20024;-63
2022/01/31 02:40:27;;;;;;;5.32;1.58;;;;;;;-2.03;62.86;96022.84;5093463;28;20358;-63
2022/01/31 02:42:53;;;;;;;7.30;1.50;;;;;;;-2.19;63.31;96023.66;5093274;28;20027;-62
2022/01/31 02:45:19;;;;;;;9.57;2.85;;;;;;;-2.33;63.83;96015.88;5091973;28;20408;-62
2022/01/31 02:47:51;;;;;;;6.45;2.15;;;;;;;-2.34;63.69;96019.31;5093015;28;20066;-62
2022/01/31 02:50:17;;;;;;;10.85;3.17;;;;;;;-2.38;63.96;96018.41;5093222;28;20024;-62
2022/01/31 02:52:47;;;;;;;12.98;3.80;;;;;;;-2.44;64.19;96018.41;5093308;28;20156;-62
2022/01/31 02:55:15;;;;;;;9.10;3.20;;;;;;;-2.46;65.09;96023.53;5093322;28;20036;-62
2022/01/31 02:57:40;;;;;;;6.82;2.55;;;;;;;-2.41;64.59;96034.66;5093103;28;20020;-62
2022/01/31 03:00:07;;;;;;;5.75;2.05;;;;;;;-2.47;64.87;96029.47;5093248;28;20045;-62
2022/01/31 03:02:33;;;;;;;8.85;1.60;;;;;;;-2.49;65.33;96031.19;5097265;28;20048;-62
2022/01/31 03:04:58;;;;;;;7.05;1.52;;;;;;;-2.45;65.88;96025.22;5096054;28;20059;-62
2022/01/31 03:07:24;;;;;;;5.25;1.83;;;;;;;-2.58;65.91;96024.31;5097148;28;20424;-62
2022/01/31 03:09:50;;;;;;;2.92;1.55;;;;;;;-2.60;66.96;96031.13;5097143;28;20031;-62
2022/01/31 03:12:16;;;;;;;9.18;1.50;;;;;;;-2.68;66.04;96033.63;5097106;28;20099;-62
2022/01/31 03:14:42;;;;;;;15.30;1.95;;;;;;;-2.69;65.36;96039.63;5097228;28;20025;-62
2022/01/31 03:17:09;;;;;;;12.30;1.85;;;;;;;-2.73;65.53;96052.38;5096988;28;20497;-62
2022/01/31 03:19:40;;;;;;;9.43;2.00;;;;;;;-2.79;65.55;96043.81;5096923;28;20038;-62
2022/01/31 03:22:06;;;;;;;10.65;2.03;;;;;;;-2.75;66.46;96047.25;5096692;28;20763;-62
2022/01/31 03:24:32;;;;;;;12.30;2.55;;;;;;;-2.89;66.23;96041.19;5096900;28;20377;-62
2022/01/31 03:26:58;;;;;;;11.73;2.35;;;;;;;-3.04;67.92;96037.69;5096950;28;20047;-62
2022/01/31 03:29:24;;;;;;;9.25;2.50;;;;;;;-3.03;69.84;96031.72;5096766;28;20105;-62
2022/01/31 03:31:50;;;;;;;10.82;2.30;;;;;;;-3.07;69.92;96041.06;5096860;28;20073;-62
2022/01/31 03:34:15;;;;;;;15.02;2.92;;;;;;;-2.99;70.65;96035.13;5096725;28;20036;-62
2022/01/31 03:36:42;;;;;;;9.35;2.20;;;;;;;-2.87;69.36;96034.38;5096759;28;20020;-62
2022/01/31 03:39:09;;;;;;;6.40;2.30;;;;;;;-2.85;68.08;96032.69;5096737;28;20035;-62
2022/01/31 03:41:35;;;;;;;6.40;2.00;;;;;;;-2.97;69.13;96029.19;5096651;28;20439;-62
2022/01/31 03:44:01;;;;;;;11.93;2.30;;;;;;;-3.04;68.91;96032.56;5096590;28;20107;-62
2022/01/31 03:46:27;;;;;;;6.57;1.98;;;;;;;-3.05;69.25;96041.06;5096367;28;20024;-62
2022/01/31 03:48:52;;;;;;;20.95;3.10;;;;;;;-3.21;70.69;96050.34;5096372;28;20031;-62
2022/01/31 03:51:18;;;;;;;11.82;1.92;;;;;;;-3.27;69.62;96045.16;5096433;28;20414;-62
2022/01/31 03:53:44;;;;;;;12.25;2.78;;;;;;;-3.21;69.38;96045.22;5096351;28;20047;-62
2022/01/31 03:56:09;;;;;;;13.27;2.45;;;;;;;-3.19;69.44;96046.09;5096279;28;20059;-62
2022/01/31 03:58:35;;;;;;;6.60;2.08;;;;;;;-3.13;69.04;96046.13;5096129;28;20477;-62
2022/01/31 04:01:01;;;;;;;8.18;2.05;;;;;;;-3.14;69.08;96052.09;5096237;28;20095;-62
2022/01/31 04:03:26;;;;;;;7.47;1.85;;;;;;;-3.13;69.59;96056.34;5096168;28;20427;-62
2022/01/31 04:05:52;;;;;;;8.70;2.55;;;;;;;-3.06;69.78;96059.84;5096151;28;20031;-62
2022/01/31 04:08:19;;;;;;;5.70;2.13;;;;;;;-3.03;70.08;96074.34;5096092;28;20024;-62
2022/01/31 04:10:44;;;;;;;3.80;1.80;;;;;;;-3.15;69.26;96068.31;5095974;28;20063;-62
2022/01/31 04:13:10;;;;;;;6.65;2.38;;;;;;;-3.13;71.19;96066.59;5095650;28;20055;-62
2022/01/31 04:15:36;;;;;;;8.82;2.00;;;;;;;-3.06;70.71;96072.63;5095900;28;20020;-62
2022/01/31 04:18:03;;;;;;;7.85;2.05;;;;;;;-3.09;69.08;96070.91;5095946;28;20573;-62
2022/01/31 04:20:29;;;;;;;10.02;2.22;;;;;;;-3.19;69.37;96075.09;5095626;28;20039;-62
2022/01/31 04:23:02;;;;;;;10.70;4.40;;;;;;;-3.26;69.22;96060.53;5095786;28;20020;-62
2022/01/31 04:28:19;;;;;;;13.88;2.22;;;;;;;-3.33;69.33;96079.22;5095642;28;20150;-62
2022/01/31 04:30:53;;;;;;;17.08;2.40;;;;;;;-3.50;69.27;96067.13;5095620;28;20035;-62
2022/01/31 04:33:20;;;;;;;6.07;2.03;;;;;;;-3.50;69.37;96068.81;5095621;28;20035;-62
2022/01/31 04:35:45;;;;;;;9.20;2.58;;;;;;;-3.42;69.13;96069.78;5095484;28;20122;-62
2022/01/31 04:38:11;;;;;;;10.43;3.08;;;;;;;-3.39;68.95;96071.50;5095453;28;20099;-62
2022/01/31 04:40:37;;;;;;;6.65;2.17;;;;;;;-3.51;69.69;96067.13;5095418;28;20058;-62
2022/01/31 04:43:02;;;;;;;8.73;2.55;;;;;;;-3.68;70.01;96063.56;5095421;28;20039;-61
2022/01/31 04:45:28;;;;;;;7.25;2.05;;;;;;;-3.76;70.09;96066.88;5095452;28;20020;-62
2022/01/31 04:47:53;;;;;;;7.82;2.17;;;;;;;-3.75;70.21;96060.91;5095120;28;20122;-62
2022/01/31 04:50:19;;;;;;;6.88;1.77;;;;;;;-3.72;70.59;96066.91;5095262;28;20109;-62
2022/01/31 04:52:45;;;;;;;7.07;2.00;;;;;;;-3.66;70.29;96062.69;5095330;28;20024;-62
2022/01/31 04:55:11;;;;;;;5.38;2.10;;;;;;;-3.66;70.08;96066.13;5095300;28;20063;-62
2022/01/31 04:57:37;;;;;;;8.90;2.20;;;;;;;-3.63;69.79;96080.63;5095240;28;20028;-62
2022/01/31 05:00:07;;;;;;;9.13;2.53;;;;;;;-3.58;69.69;96082.38;5095090;28;20030;-62
2022/01/31 05:02:33;;;;;;;10.20;1.43;;;;;;;-3.63;69.20;96062.72;5093867;28;20117;-62
2022/01/31 05:04:58;;;;;;;4.47;2.10;;;;;;;-3.66;69.90;96076.34;5094948;28;20420;-62
2022/01/31 05:07:24;;;;;;;9.20;2.90;;;;;;;-3.70;70.67;96088.22;5094989;28;20024;-62
2022/01/31 05:09:50;;;;;;;14.27;2.30;;;;;;;-3.66;70.28;96081.47;5095069;28;20501;-62
2022/01/31 05:12:16;;;;;;;9.25;2.10;;;;;;;-3.77;69.96;96081.34;5094782;28;20024;-62
2022/01/31 05:14:41;;;;;;;2.83;1.65;;;;;;;-3.77;70.00;96090.72;5094729;28;20024;-62
2022/01/31 05:17:07;;;;;;;8.27;2.42;;;;;;;-3.85;70.37;96081.25;5094668;28;20024;-62
2022/01/31 05:19:36;;;;;;;8.02;1.95;;;;;;;-3.88;70.29;96091.47;5094788;28;20427;-62
2022/01/31 05:22:01;;;;;;;8.07;1.30;;;;;;;-3.97;70.78;96092.19;5094493;28;20036;-62
2022/01/31 05:24:28;;;;;;;17.52;1.65;;;;;;;-3.96;70.71;96096.47;5093904;28;20482;-62
2022/01/31 05:26:54;;;;;;;7.88;2.20;;;;;;;-3.96;70.70;96099.03;5094555;28;20564;-62
2022/01/31 05:29:21;;;;;;;9.07;1.90;;;;;;;-3.99;70.54;96103.25;5094482;28;20024;-62
2022/01/31 05:31:48;;;;;;;7.82;1.90;;;;;;;-3.99;70.57;96096.44;5094543;28;20549;-62
2022/01/31 05:34:15;;;;;;;3.85;2.03;;;;;;;-3.97;70.23;96094.75;5094412;28;20085;-62
2022/01/31 05:36:42;;;;;;;5.82;2.00;;;;;;;-3.96;69.92;96096.47;5094329;28;20454;-62
2022/01/31 05:39:08;;;;;;;10.55;2.45;;;;;;;-3.95;70.58;96113.53;5094252;28;20017;-62
2022/01/31 05:41:33;;;;;;;7.05;1.75;;;;;;;-3.95;70.53;96117.75;5094262;28;20099;-62
2022/01/31 05:43:59;;;;;;;9.38;2.42;;;;;;;-3.94;70.88;96122.91;5094179;28;20103;-62
2022/01/31 05:46:25;;;;;;;11.68;1.85;;;;;;;-3.92;70.70;96122.91;5094150;28;20074;-62
2022/01/31 05:48:51;;;;;;;13.40;1.73;;;;;;;-3.86;70.34;96120.44;5094091;28;20501;-61
2022/01/31 05:51:21;;;;;;;9.98;2.17;;;;;;;-3.94;70.53;96120.34;5094167;28;20031;-62
2022/01/31 05:53:50;;;;;;;6.25;1.98;;;;;;;-3.89;70.73;96132.34;5094095;28;20462;-61
2022/01/31 05:56:17;;;;;;;6.38;1.27;;;;;;;-3.82;70.84;96140.09;5093894;28;20024;-62
2022/01/31 05:58:44;;;;;;;18.05;2.55;;;;;;;-3.74;70.73;96137.63;5093928;28;20020;-62
2022/01/31 06:01:10;;;;;;;8.82;2.38;;;;;;;-3.68;70.75;96139.38;5093789;28;20103;-62
2022/01/31 06:03:37;;;;;;;12.93;2.42;;;;;;;-3.66;70.67;96142.84;5093996;28;20055;-62
2022/01/31 06:06:04;;;;;;;9.48;2.28;;;;;;;-3.61;70.26;96132.66;5093745;28;20032;-62
2022/01/31 06:08:30;;;;;;;14.70;2.72;;;;;;;-3.66;71.26;96147.09;5093874;28;20474;-62
2022/01/31 06:10:56;;;;;;;8.00;2.47;;;;;;;-3.53;71.00;96142.97;5093831;28;20031;-62
2022/01/31 06:13:29;;;;;;;12.32;2.05;;;;;;;-3.44;70.29;96149.06;5093659;28;20032;-62
2022/01/31 06:15:55;;;;;;;9.88;2.08;;;;;;;-2.80;70.64;96151.38;5093730;28;20024;-62
2022/01/31 06:18:20;;;;;;;6.82;1.42;;;;;;;-1.24;65.91;96146.22;5093582;28;20055;-62
2022/01/31 06:20:46;;;;;;;5.03;1.83;;;;;;;0.41;59.80;96158.94;5093318;28;20162;-62
2022/01/31 06:23:12;;;;;;;8.48;1.63;;;;;;;1.77;57.03;96147.72;5093534;28;20165;-62
2022/01/31 06:25:39;;;;;;;7.30;1.45;;;;;;;3.20;51.29;96142.59;5093540;28;20032;-62
2022/01/31 06:28:06;;;;;;;6.07;1.95;;;;;;;4.66;48.04;96136.53;5093242;28;20381;-62
2022/01/31 06:30:33;;;;;;;11.07;2.35;;;;;;;6.26;44.21;96122.44;5093452;28;20035;-63
2022/01/31 06:32:58;;;;;;;8.48;2.28;;;;;;;7.47;41.75;96128.41;5093515;28;20053;-63
2022/01/31 06:35:24;;;;;;;6.80;2.05;;;;;;;8.64;39.27;96128.84;5093357;28;20105;-63
2022/01/31 06:37:51;;;;;;;7.20;1.73;;;;;;;9.70;36.64;96116.94;5093250;28;20024;-63
2022/01/31 06:40:16;;;;;;;13.73;2.10;;;;;;;10.43;35.20;96120.81;5092016;28;20027;-63
2022/01/31 06:42:42;;;;;;;6.65;2.10;;;;;;;11.39;33.73;96123.50;5093510;28;20016;-63
2022/01/31 06:45:08;;;;;;;11.50;2.00;;;;;;;11.57;32.72;96128.75;5093390;28;20550;-63
2022/01/31 06:47:34;;;;;;;14.70;4.90;;;;;;;11.79;32.75;96135.56;5093291;28;20528;-63
2022/01/31 06:50:00;;;;;;;15.15;5.10;;;;;;;12.80;31.10;96143.59;5093193;28;20032;-63
2022/01/31 06:52:31;;;;;;;14.00;4.63;;;;;;;13.87;29.92;96149.19;5093223;28;20077;-64
2022/01/31 06:55:01;;;;;;;8.43;3.85;;;;;;;14.64;27.85;96151.72;5093181;28;20024;-64
2022/01/31 06:57:33;;;;;;;12.65;3.85;;;;;;;15.52;26.89;96143.72;5093269;28;20028;-62
2022/01/31 06:59:59;;;;;;;12.10;4.70;;;;;;;16.25;25.62;96151.34;5093229;28;20032;-64
2022/01/31 07:02:25;;;;;;;7.75;3.05;;;;;;;17.10;24.77;96141.22;5092956;28;20020;-63
2022/01/31 07:04:50;;;;;;;10.57;3.20;;;;;;;17.50;23.95;96127.81;5093040;28;20095;-63
2022/01/31 07:07:15;;;;;;;8.05;2.67;;;;;;;17.41;23.77;96124.03;5092979;28;20028;-64
2022/01/31 07:09:42;;;;;;;6.22;2.65;;;;;;;17.33;23.96;96122.91;5093082;28;20048;-63
2022/01/31 07:12:10;;;;;;;10.00;2.50;;;;;;;17.34;24.33;96132.50;5093051;28;20028;-62
2022/01/31 07:14:36;;;;;;;9.60;2.83;;;;;;;17.98;23.79;96126.09;5092995;28;20032;-65
2022/01/31 07:17:04;;;;;;;22.00;3.33;;;;;;;18.74;22.24;96121.31;5092854;28;20419;-65
2022/01/31 07:19:33;;;;;;;16.58;2.50;;;;;;;19.53;21.56;96112.47;5092920;28;20024;-64
2022/01/31 07:21:59;;;;;;;5.95;2.25;;;;;;;20.44;20.88;96107.78;5092731;28;20101;-65
2022/01/31 07:24:49;;;;;;;8.10;2.92;;;;;;;20.49;20.43;96110.00;5092980;28;20474;-63
2022/01/31 07:27:11;;;;;;;8.63;2.65;;;;;;;20.18;20.89;96110.81;5092287;28;20063;-65
2022/01/31 07:29:36;;;;;;;7.65;2.67;;;;;;;20.09;20.09;96115.06;5092972;28;20066;-63
2022/01/31 07:32:02;;;;;;;11.15;3.25;;;;;;;20.35;20.42;96113.84;5092820;28;20441;-65
2022/01/31 07:34:28;;;;;;;13.98;3.25;;;;;;;20.99;20.30;96104.00;5092771;28;20028;-63
2022/01/31 07:36:54;;;;;;;13.68;3.00;;;;;;;21.65;19.16;96103.59;5092774;28;20030;-66
2022/01/31 07:39:20;;;;;;;8.13;3.10;;;;;;;22.37;18.83;96090.00;5092884;28;20029;-62
2022/01/31 07:41:49;;;;;;;8.50;2.63;;;;;;;22.71;19.01;96088.66;5092592;28;20016;-64
2022/01/31 07:44:15;;;;;;;6.55;2.72;;;;;;;22.82;17.49;96084.97;5092533;28;20031;-65
2022/01/31 07:46:41;;;;;;;8.90;2.20;;;;;;;23.06;17.37;96088.94;5093729;28;20115;-61
2022/01/31 07:49:07;;;;;;;5.03;2.22;;;;;;;23.23;17.02;96085.47;5096549;28;20055;-65
2022/01/31 07:51:36;;;;;;;7.15;2.55;;;;;;;23.01;17.48;96088.53;5096417;28;20020;-64
2022/01/31 07:54:02;;;;;;;11.23;2.83;;;;;;;21.67;17.50;96094.47;5096355;28;20056;-63
2022/01/31 07:56:27;;;;;;;7.75;3.05;;;;;;;22.05;17.37;96085.81;5096346;28;20051;-64
2022/01/31 07:58:53;;;;;;;10.95;3.10;;;;;;;21.85;17.36;96085.81;5096247;28;20016;-65
2022/01/31 08:01:19;;;;;;;7.00;2.60;;;;;;;21.06;18.38;96080.34;5096252;28;20035;-65
2022/01/31 08:03:47;;;;;;;10.30;2.17;;;;;;;20.43;18.41;96083.00;5096131;28;20028;-64
2022/01/31 08:06:15;;;;;;;7.35;2.28;;;;;;;19.76;19.21;96077.94;5095902;28;20023;-65
2022/01/31 08:08:41;;;;;;;10.88;2.67;;;;;;;19.07;19.36;96066.63;5096069;28;20020;-65
2022/01/31 08:11:08;;;;;;;4.78;2.13;;;;;;;18.67;19.86;96074.13;5095922;28;20020;-64
2022/01/31 08:13:34;;;;;;;5.03;3.05;;;;;;;17.92;20.54;96074.47;5095960;28;20055;-65
2022/01/31 08:16:19;;;;;;;12.23;3.78;;;;;;;18.06;20.19;96072.56;5095862;28;20102;-65
2022/01/31 08:18:45;;;;;;;8.20;4.68;;;;;;;17.02;21.77;96070.41;5095922;28;20032;-62
2022/01/31 08:21:12;;;;;;;7.25;2.30;;;;;;;16.86;21.37;96068.03;5095779;28;20063;-64
2022/01/31 08:23:38;;;;;;;7.68;2.53;;;;;;;17.47;21.21;96069.00;5095846;28;20027;-65
2022/01/31 08:26:08;;;;;;;8.25;2.40;;;;;;;16.74;21.40;96069.72;5095869;28;20035;-65
2022/01/31 08:28:43;;;;;;;9.73;2.55;;;;;;;15.56;22.87;96081.94;5095689;28;20542;-63
2022/01/31 08:31:29;;;;;;;7.88;2.05;;;;;;;15.41;22.93;96082.00;5095660;28;20064;-65
2022/01/31 08:36:34;;;;;;;7.57;2.20;;;;;;;13.56;25.13;96093.97;5095700;28;20039;-65
2022/01/31 08:39:08;;;;;;;6.07;1.92;;;;;;;12.93;25.56;96087.78;5095530;28;20474;-63
2022/01/31 08:41:39;;;;;;;8.30;2.25;;;;;;;12.03;27.42;96091.56;5095463;28;20031;-62
2022/01/31 08:44:05;;;;;;;;;;;;;;;11.55;28.73;96081.69;5095850;28;20058;-62
2022/01/31 08:46:31;;;;;;;12.05;5.13;;;;;;;10.96;29.74;96087.94;5095228;28;19919;-61
2022/01/31 08:48:59;;;;;;;11.35;4.30;;;;;;;10.92;30.34;96085.53;5095357;28;20488;-63
2022/01/31 08:51:25;;;;;;;17.70;5.50;;;;;;;10.40;30.61;96079.13;5094793;28;20040;-63
2022/01/31 08:53:52;;;;;;;15.55;3.75;;;;;;;10.41;30.94;96078.22;5095253;28;20355;-64
2022/01/31 08:56:18;;;;;;;13.20;3.97;;;;;;;10.10;32.29;96076.06;5095200;28;20028;-63
2022/01/31 08:58:47;;;;;;;15.63;3.92;;;;;;;9.95;34.00;96082.78;5094119;28;20405;-64
2022/01/31 09:01:17;;;;;;;8.63;4.70;;;;;;;9.70;33.51;96080.38;5095103;28;20115;-64
2022/01/31 09:04:07;;;;;;;11.07;3.07;;;;;;;9.50;33.98;96074.19;5095175;28;20028;-64
2022/01/31 09:06:32;;;;;;;6.72;2.70;;;;;;;9.15;34.27;96079.94;5094405;28;20279;-63
2022/01/31 09:08:58;;;;;;;12.82;2.25;;;;;;;8.79;35.12;96086.50;5094953;28;20020;-61
2022/01/31 09:11:25;;;;;;;9.30;3.10;;;;;;;8.53;35.46;96079.66;5094854;28;20055;-63
2022/01/31 09:13:51;;;;;;;14.85;4.28;;;;;;;8.68;36.41;96086.94;5094844;28;20103;-63
2022/01/31 09:16:17;;;;;;;18.00;3.63;;;;;;;8.82;35.54;96078.56;5094924;28;20103;-63
2022/01/31 09:18:44;;;;;;;12.52;3.22;;;;;;;9.08;36.04;96066.28;5093529;28;20024;-62
2022/01/31 09:21:10;;;;;;;10.70;2.17;;;;;;;8.99;34.68;96056.22;5094492;28;20048;-63
2022/01/31 09:23:37;;;;;;;6.80;2.95;;;;;;;8.69;35.29;96069.53;5093354;28;20371;-63
2022/01/31 09:26:04;;;;;;;9.82;2.53;;;;;;;8.64;35.21;96053.22;5093354;28;20075;-63
2022/01/31 09:28:30;;;;;;;4.30;1.90;;;;;;;8.72;35.70;96043.31;5094451;28;20067;-62
2022/01/31 09:30:56;;;;;;;14.75;2.20;;;;;;;8.09;34.94;96047.34;5094480;28;20021;-63
2022/01/31 09:33:22;;;;;;;7.25;2.33;;;;;;;8.24;35.60;96055.53;5094413;28;20409;-63
2022/01/31 09:35:48;;;;;;;10.80;2.00;;;;;;;8.52;35.04;96031.88;5094494;28;20020;-63
2022/01/31 09:38:17;;;;;;;6.32;1.98;;;;;;;8.42;34.98;96033.13;5094299;28;20016;-62
2022/01/31 09:40:43;;;;;;;11.75;3.40;;;;;;;8.59;35.38;96036.00;5094204;28;20111;-63
2022/01/31 09:48:38;;;;;;;10.20;2.13;;;;;;;8.61;33.50;96022.03;5094123;28;20055;-63
2022/01/31 09:51:16;;;;;;;7.10;2.63;;;;;;;8.74;34.20;96017.19;5094124;28;20063;-64
2022/01/31 09:54:00;;;;;;;9.98;1.90;;;;;;;8.45;34.19;96010.41;5094031;28;20028;-62
2022/01/31 09:56:32;;;;;;;4.63;1.65;;;;;;;8.48;34.07;95999.00;5094063;28;20031;-63
2022/01/31 09:59:00;;;;;;;9.32;1.75;;;;;;;8.57;34.30;95996.09;5094098;28;20035;-62
2022/01/31 10:01:30;;;;;;;5.13;2.00;;;;;;;8.74;33.73;95983.28;5093935;28;20027;-63
2022/01/31 10:04:09;;;;;;;7.72;2.20;;;;;;;8.81;33.47;95971.69;5093806;28;20022;-63
2022/01/31 10:06:39;;;;;;;8.38;1.95;;;;;;;8.93;33.35;95972.97;5093757;28;20032;-63
2022/01/31 10:09:23;;;;;;;6.20;1.85;;;;;;;9.08;32.15;95969.75;5093502;28;20028;-63
2022/01/31 10:11:55;;;;;;;5.40;1.88;;;;;;;8.91;32.03;95964.38;5094013;28;20108;-63
2022/01/31 10:17:23;;;;;;;10.20;2.05;;;;;;;9.12;33.49;95953.97;5093776;28;20402;-63
2022/01/31 10:19:50;;;;;;;6.28;1.90;;;;;;;9.14;33.04;95959.94;5093649;28;20507;-62
2022/01/31 10:22:18;;;;;;;6.10;1.80;;;;;;;9.20;32.40;95957.09;5093358;28;20501;-63
2022/01/31 10:24:47;;;;;;;6.60;2.03;;;;;;;9.24;33.36;95950.81;5093647;28;20028;-63
2022/01/31 10:27:22;;;;;;;4.53;1.70;;;;;;;9.34;33.52;95943.47;5093442;28;20027;-62
2022/01/31 10:29:52;;;;;;;6.63;1.90;;;;;;;9.41;32.91;95944.03;5093532;28;20024;-64
2022/01/31 10:32:30;;;;;;;7.40;2.30;;;;;;;9.48;32.21;95930.66;5093407;28;20024;-63
2022/01/31 10:35:00;;;;;;;4.75;1.23;;;;;;;9.33;31.69;95928.72;5093436;28;20028;-63
2022/01/31 10:37:28;;;;;;;;;;;;;;;9.50;29.33;95933.22;5093888;28;20036;-61
2022/01/31 10:46:33;;;;;;;6.32;1.35;;;;;;;9.66;27.03;95920.31;5093592;28;20551;-64
2022/01/31 10:53:55;;;;;;;5.38;1.63;;;;;;;9.60;27.11;95908.38;5093236;28;20107;-63
2022/01/31 10:56:22;;;;;;;4.22;1.05;;;;;;;9.48;27.12;95908.91;5093272;28;20024;-63
2022/01/31 10:59:00;;;;;;;5.95;1.77;;;;;;;9.46;27.44;95905.56;5093160;28;20032;-63
2022/01/31 11:01:27;;;;;;;5.53;1.50;;;;;;;9.57;26.62;95903.31;5093195;28;20377;-62
2022/01/31 11:03:54;;;;;;;4.75;1.25;;;;;;;9.40;27.00;95893.63;5093070;28;20616;-63
2022/01/31 11:06:23;;;;;;;2.63;1.35;;;;;;;9.38;24.74;95889.34;5093053;28;20550;-64
2022/01/31 11:08:49;;;;;;;4.05;1.52;;;;;;;9.34;26.63;95884.25;5093089;28;20027;-63
2022/01/31 11:11:15;;;;;;;2.55;1.33;;;;;;;9.22;25.76;95884.81;5092897;28;20107;-64
2022/01/31 11:13:40;;;;;;;6.18;1.70;;;;;;;9.27;26.77;95879.41;5092932;28;20020;-63
2022/01/31 11:16:07;;;;;;;3.40;1.17;;;;;;;9.24;25.86;95875.16;5093046;28;20017;-63
2022/01/31 11:18:35;;;;;;;2.95;1.00;;;;;;;9.18;25.40;95865.00;5093035;28;20479;-63
2022/01/31 11:21:06;;;;;;;2.80;1.40;;;;;;;9.19;26.34;95870.16;5092870;28;20165;-62
2022/01/31 11:23:43;;;;;;;3.90;1.33;;;;;;;9.23;25.51;95863.88;5096941;28;20042;-64
2022/01/31 11:26:11;;;;;;;4.38;1.40;;;;;;;9.32;26.66;95854.78;5096990;28;20047;-63
2022/01/31 11:28:41;;;;;;;7.18;1.88;;;;;;;9.33;29.37;95855.66;5096708;28;20039;-62
2022/01/31 11:31:07;;;;;;;6.10;2.10;;;;;;;9.32;28.47;95848.72;5096911;28;20020;-63
2022/01/31 11:33:35;;;;;;;10.95;2.38;;;;;;;9.34;28.18;95839.06;5096809;28;20386;-63
2022/01/31 11:36:01;;;;;;;5.05;1.65;;;;;;;9.41;27.68;95830.03;5096857;28;20443;-63
2022/01/31 11:38:28;;;;;;;4.32;1.83;;;;;;;9.30;27.02;95827.91;5096578;28;20016;-63
2022/01/31 11:41:03;;;;;;;6.05;2.13;;;;;;;9.19;26.93;95836.22;5096627;28;20020;-63
2022/01/31 11:43:30;;;;;;;7.00;3.03;;;;;;;8.93;26.73;95835.59;5096926;28;20115;-61
2022/01/31 11:45:59;;;;;;;4.63;3.13;;;;;;;8.81;26.70;95846.53;5096484;28;20016;-62
2022/01/31 11:48:27;;;;;;;3.05;1.88;;;;;;;8.82;25.69;95829.97;5096397;28;20371;-62
2022/01/31 11:50:58;;;;;;;10.13;3.92;;;;;;;8.84;26.99;95828.13;5096537;28;20070;-62
2022/01/31 11:53:35;;;;;;;8.13;2.03;;;;;;;8.81;27.77;95820.44;5096428;28;20053;-63
2022/01/31 11:56:07;;;;;;;8.95;2.40;;;;;;;8.76;27.46;95817.19;5096579;28;20059;-63
2022/01/31 11:58:44;;;;;;;9.80;2.83;;;;;;;8.79;30.04;95811.84;5096435;28;20028;-62
2022/01/31 12:01:10;;;;;;;3.25;1.77;;;;;;;8.82;29.12;95798.69;5096206;28;20035;-63